Time;durP1;ratioP1;P1;durP2;ratioP2;P2;SDS_P1;SDS_P2;PMS_P1;PMS_P2;Temp;Humidity;BMP_temperature;BMP_pressure;BME280_temperature;BME280_humidity;BME280_pressure;Samples;Min_cycle;Max_cycle;Signal;HPM_P1;HPM_P2
2021/05/09 00:01:21;;;;;;;7.65;3.35;;;8.20;80.80;;;;;;5052214;28;20049;-69
2021/05/09 00:03:48;;;;;;;8.07;3.50;;;8.20;80.10;;;;;;5041920;28;20504;-69
2021/05/09 00:06:15;;;;;;;7.50;3.63;;;8.10;80.20;;;;;;5023023;28;20049;-69
2021/05/09 00:08:42;;;;;;;8.73;3.72;;;8.10;80.50;;;;;;5051373;28;20049;-69
2021/05/09 00:11:09;;;;;;;7.57;3.33;;;8.00;80.60;;;;;;5033973;28;20535;-69
2021/05/09 00:13:37;;;;;;;7.72;3.85;;;8.00;81.20;;;;;;5051512;28;20053;-68
2021/05/09 00:16:04;;;;;;;8.70;4.20;;;8.00;81.00;;;;;;5028118;28;20867;-69
2021/05/09 00:18:31;;;;;;;10.00;3.70;;;8.00;80.30;;;;;;5016704;28;20455;-69
2021/05/09 00:20:58;;;;;;;11.27;4.32;;;8.00;81.00;;;;;;5023172;28;20413;-69
2021/05/09 00:23:25;;;;;;;7.32;2.95;;;7.90;80.70;;;;;;5046464;28;20504;-69
2021/05/09 00:25:57;;;;;;;8.82;3.85;;;7.90;80.20;;;;;;5027313;28;20404;-68
2021/05/09 00:28:23;;;;;;;6.88;3.03;;;7.90;80.10;;;;;;5052225;28;20099;-69
2021/05/09 00:30:50;;;;;;;8.07;3.45;;;7.90;80.00;;;;;;5012024;28;20076;-69
2021/05/09 00:33:16;;;;;;;9.75;3.97;;;7.90;79.60;;;;;;5026553;28;20056;-69
2021/05/09 00:35:43;;;;;;;7.78;3.10;;;7.80;80.30;;;;;;5027813;28;20049;-69
2021/05/09 00:38:09;;;;;;;8.23;3.60;;;7.70;80.10;;;;;;5025371;28;20077;-69
2021/05/09 00:40:37;;;;;;;9.20;4.00;;;7.70;80.80;;;;;;5032617;28;20049;-69
2021/05/09 00:43:03;;;;;;;7.22;4.15;;;7.80;80.80;;;;;;5030112;28;20051;-68
2021/05/09 00:45:30;;;;;;;7.07;3.75;;;7.80;81.20;;;;;;5029373;28;20053;-69
2021/05/09 00:47:56;;;;;;;9.45;3.83;;;7.80;81.50;;;;;;5015953;28;20060;-69
2021/05/09 00:50:23;;;;;;;10.75;5.05;;;7.80;81.10;;;;;;5016126;28;20103;-68
2021/05/09 00:52:50;;;;;;;9.13;4.47;;;7.80;80.80;;;;;;5029828;28;20052;-68
2021/05/09 00:55:17;;;;;;;11.98;4.97;;;7.70;81.40;;;;;;5045160;28;20136;-68
2021/05/09 00:57:45;;;;;;;8.30;4.72;;;7.70;82.10;;;;;;5012517;28;20057;-69
2021/05/09 01:00:14;;;;;;;10.15;4.43;;;7.60;81.40;;;;;;5032175;28;20144;-69
2021/05/09 01:02:43;;;;;;;10.43;4.45;;;7.60;82.00;;;;;;5033181;28;20052;-69
2021/05/09 01:05:12;;;;;;;12.57;4.30;;;7.50;82.00;;;;;;5031650;28;20053;-69
2021/05/09 01:07:40;;;;;;;12.25;4.93;;;7.50;83.00;;;;;;5031927;28;20044;-69
2021/05/09 01:10:10;;;;;;;11.60;4.78;;;7.50;82.80;;;;;;5032485;28;20043;-69
2021/05/09 01:12:37;;;;;;;9.77;5.22;;;7.40;82.60;;;;;;5048645;28;20044;-69
2021/05/09 01:15:05;;;;;;;10.13;5.07;;;7.40;82.50;;;;;;5039337;28;20053;-69
2021/05/09 01:17:33;;;;;;;9.38;4.88;;;7.50;82.50;;;;;;5031233;28;20083;-68
2021/05/09 01:20:20;;;;;;;11.98;5.47;;;7.40;83.10;;;;;;5029843;28;20061;-69
2021/05/09 01:22:46;;;;;;;12.68;5.68;;;7.40;84.20;;;;;;5021064;28;20107;-69
2021/05/09 01:25:13;;;;;;;11.23;5.50;;;7.40;83.30;;;;;;5049489;28;20099;-69
2021/05/09 01:27:40;;;;;;;14.55;6.55;;;7.40;83.60;;;;;;5016143;28;20049;-69
2021/05/09 01:30:09;;;;;;;13.75;5.65;;;7.40;83.90;;;;;;5046300;28;20087;-69
2021/05/09 01:32:36;;;;;;;12.10;6.05;;;7.40;84.00;;;;;;5043513;28;20434;-69
2021/05/09 01:35:04;;;;;;;12.60;5.85;;;7.30;83.70;;;;;;5048530;28;20052;-68
2021/05/09 01:37:31;;;;;;;17.45;6.03;;;7.30;83.90;;;;;;5028733;28;20059;-69
2021/05/09 01:39:58;;;;;;;13.10;5.65;;;7.30;85.00;;;;;;5032606;28;20045;-69
2021/05/09 01:42:25;;;;;;;12.38;5.03;;;7.40;84.10;;;;;;5051631;28;20052;-69
2021/05/09 01:44:54;;;;;;;11.82;5.75;;;7.30;84.30;;;;;;5032374;28;20136;-69
2021/05/09 01:47:23;;;;;;;13.85;5.82;;;7.30;84.10;;;;;;5021106;28;20144;-69
2021/05/09 01:49:50;;;;;;;12.75;5.55;;;7.30;84.30;;;;;;5014777;28;20575;-69
2021/05/09 01:52:19;;;;;;;14.40;5.50;;;7.20;85.30;;;;;;5047240;28;20051;-69
2021/05/09 01:54:47;;;;;;;12.52;6.10;;;7.20;85.10;;;;;;5033898;28;20454;-69
2021/05/09 01:57:15;;;;;;;12.50;6.07;;;7.10;84.40;;;;;;5031314;28;20547;-69
2021/05/09 01:59:45;;;;;;;14.88;6.68;;;7.10;85.30;;;;;;5032198;28;20064;-69
2021/05/09 02:02:11;;;;;;;17.77;7.45;;;7.10;85.10;;;;;;5048375;28;20088;-68
2021/05/09 02:04:43;;;;;;;14.85;7.07;;;7.00;85.30;;;;;;5026224;28;20053;-69
2021/05/09 02:07:14;;;;;;;16.30;6.57;;;7.00;85.10;;;;;;5021416;28;20104;-69
2021/05/09 02:09:46;;;;;;;16.98;6.72;;;7.10;85.60;;;;;;5030595;28;20106;-69
2021/05/09 02:12:13;;;;;;;15.88;7.45;;;7.10;85.30;;;;;;5030789;28;20111;-69
2021/05/09 02:14:45;;;;;;;14.77;6.07;;;7.00;84.90;;;;;;5023640;28;20073;-69
2021/05/09 02:17:12;;;;;;;13.52;6.00;;;7.10;85.80;;;;;;5031479;28;20122;-69
2021/05/09 02:19:46;;;;;;;16.08;6.13;;;7.10;86.00;;;;;;5027090;28;20508;-69
2021/05/09 02:22:16;;;;;;;12.82;5.78;;;7.00;85.20;;;;;;5031929;28;20045;-69
2021/05/09 02:24:43;;;;;;;11.88;5.45;;;7.10;85.90;;;;;;5032464;28;20076;-68
2021/05/09 02:27:11;;;;;;;11.50;4.50;;;7.20;85.30;;;;;;5030509;28;20456;-68
2021/05/09 02:29:38;;;;;;;11.68;4.82;;;7.30;85.30;;;;;;5031230;28;20045;-69
2021/05/09 02:32:05;;;;;;;10.05;4.90;;;7.10;84.60;;;;;;5013382;28;20041;-68
2021/05/09 02:34:35;;;;;;;11.95;4.88;;;7.10;85.00;;;;;;5030404;28;20060;-68
2021/05/09 02:37:05;;;;;;;10.75;4.88;;;7.00;85.20;;;;;;5003898;28;20045;-68
2021/05/09 02:39:32;;;;;;;8.88;4.28;;;7.00;85.30;;;;;;5033279;28;20056;-73
2021/05/09 02:42:00;;;;;;;13.80;5.25;;;6.90;86.30;;;;;;5050368;28;20526;-68
2021/05/09 02:44:27;;;;;;;16.65;5.60;;;6.90;87.20;;;;;;5031673;28;20160;-68
2021/05/09 02:46:54;;;;;;;11.02;5.53;;;6.90;86.70;;;;;;5030925;28;20068;-68
2021/05/09 02:49:21;;;;;;;15.23;6.45;;;6.80;87.10;;;;;;5043080;28;20045;-69
2021/05/09 02:51:49;;;;;;;12.45;4.88;;;6.80;87.30;;;;;;5034524;28;20529;-68
2021/05/09 02:54:17;;;;;;;11.27;4.93;;;6.80;86.60;;;;;;5035312;28;20052;-68
2021/05/09 02:56:44;;;;;;;13.70;5.05;;;6.80;86.10;;;;;;5052897;28;20049;-69
2021/05/09 02:59:11;;;;;;;12.10;5.05;;;6.80;86.00;;;;;;5052134;28;20045;-69
2021/05/09 03:01:39;;;;;;;10.43;4.35;;;6.70;86.90;;;;;;5033223;28;20045;-69
2021/05/09 03:04:06;;;;;;;9.23;4.00;;;6.70;86.50;;;;;;5019137;28;20081;-69
2021/05/09 03:06:32;;;;;;;9.57;4.07;;;6.70;87.40;;;;;;5034213;28;20060;-69
2021/05/09 03:09:02;;;;;;;11.55;4.82;;;6.70;86.60;;;;;;5015113;28;20049;-69
2021/05/09 03:11:30;;;;;;;11.63;4.93;;;6.80;87.50;;;;;;5034342;28;20132;-69
2021/05/09 03:13:59;;;;;;;12.73;5.45;;;6.80;86.70;;;;;;5035012;28;20139;-69
2021/05/09 03:16:25;;;;;;;8.27;4.20;;;6.70;86.50;;;;;;5030519;28;20061;-69
2021/05/09 03:18:52;;;;;;;12.43;4.95;;;6.70;87.10;;;;;;5046083;28;20057;-69
2021/05/09 03:21:21;;;;;;;13.30;6.05;;;6.70;87.70;;;;;;5029011;28;20053;-69
2021/05/09 03:23:48;;;;;;;11.80;4.80;;;6.70;87.40;;;;;;5026360;28;20062;-68
2021/05/09 03:26:15;;;;;;;16.08;5.93;;;6.70;87.80;;;;;;5025535;28;20547;-70
2021/05/09 03:28:41;;;;;;;10.77;4.93;;;6.70;87.70;;;;;;5033723;28;20048;-69
2021/05/09 03:31:08;;;;;;;13.60;5.32;;;6.80;87.70;;;;;;5017507;28;20060;-68
2021/05/09 03:33:35;;;;;;;10.38;4.43;;;6.70;87.80;;;;;;5050807;28;20090;-69
2021/05/09 03:36:02;;;;;;;13.13;6.15;;;6.70;87.80;;;;;;5017769;28;20452;-68
2021/05/09 03:38:28;;;;;;;15.00;7.60;;;6.70;87.90;;;;;;5051587;28;20099;-69
2021/05/09 03:40:55;;;;;;;13.52;6.50;;;6.70;87.80;;;;;;5047926;28;20045;-68
2021/05/09 03:43:21;;;;;;;13.52;7.03;;;6.60;88.10;;;;;;5052499;28;20500;-69
2021/05/09 03:45:48;;;;;;;12.77;5.93;;;6.70;89.10;;;;;;5031635;28;20041;-68
2021/05/09 03:48:14;;;;;;;12.10;5.50;;;6.70;88.40;;;;;;5034786;28;20049;-69
2021/05/09 03:50:41;;;;;;;12.85;6.13;;;6.70;88.60;;;;;;5056191;28;20051;-68
2021/05/09 03:53:07;;;;;;;11.30;5.40;;;6.70;88.70;;;;;;5033498;28;20056;-68
2021/05/09 03:55:35;;;;;;;15.43;5.72;;;6.60;88.80;;;;;;5050727;28;20053;-68
2021/05/09 03:58:01;;;;;;;10.45;4.82;;;6.70;89.40;;;;;;5032992;28;20045;-68
2021/05/09 04:00:28;;;;;;;9.88;4.35;;;6.80;88.90;;;;;;5050466;28;20044;-69
2021/05/09 04:02:54;;;;;;;12.23;4.72;;;6.80;88.60;;;;;;5051508;28;20111;-68
2021/05/09 04:05:21;;;;;;;9.10;4.50;;;7.00;88.30;;;;;;5029390;28;20063;-69
2021/05/09 04:07:48;;;;;;;12.10;4.55;;;7.10;87.60;;;;;;5049453;28;20813;-69
2021/05/09 04:10:14;;;;;;;11.32;5.50;;;7.00;87.70;;;;;;5051712;28;20067;-69
2021/05/09 04:12:41;;;;;;;10.02;4.32;;;7.20;87.50;;;;;;5046682;28;20050;-69
2021/05/09 04:15:08;;;;;;;10.00;4.78;;;7.30;87.10;;;;;;5031391;28;20056;-69
2021/05/09 04:17:35;;;;;;;9.25;3.95;;;7.30;86.70;;;;;;5022139;28;20049;-69
2021/05/09 04:20:02;;;;;;;7.47;3.72;;;7.30;86.50;;;;;;5051168;28;20060;-69
2021/05/09 04:22:29;;;;;;;7.53;3.42;;;7.40;86.80;;;;;;5052068;28;20060;-69
2021/05/09 04:24:56;;;;;;;9.40;3.45;;;7.50;86.10;;;;;;5033348;28;20129;-68
2021/05/09 04:27:22;;;;;;;7.10;3.40;;;7.60;86.00;;;;;;5033702;28;20045;-69
2021/05/09 04:29:49;;;;;;;9.93;3.53;;;7.60;85.70;;;;;;5052276;28;20053;-69
2021/05/09 04:32:16;;;;;;;6.78;3.22;;;7.70;85.70;;;;;;5041211;28;20103;-69
2021/05/09 04:34:42;;;;;;;7.70;3.60;;;7.80;85.20;;;;;;5029723;28;20079;-69
2021/05/09 04:37:09;;;;;;;9.82;3.80;;;7.90;85.40;;;;;;5033827;28;20496;-69
2021/05/09 04:39:35;;;;;;;10.13;4.07;;;8.00;84.20;;;;;;5032191;28;20118;-68
2021/05/09 04:42:02;;;;;;;9.65;3.92;;;8.10;83.90;;;;;;5030960;28;20056;-69
2021/05/09 04:44:28;;;;;;;14.27;5.65;;;8.20;82.70;;;;;;5031788;28;20056;-68
2021/05/09 04:46:55;;;;;;;11.98;4.40;;;8.40;81.70;;;;;;5033992;28;20049;-68
2021/05/09 04:49:21;;;;;;;11.15;4.97;;;8.50;80.70;;;;;;5030260;28;20049;-69
2021/05/09 04:51:48;;;;;;;11.63;3.60;;;8.80;79.80;;;;;;5032643;28;20049;-69
2021/05/09 04:54:14;;;;;;;9.93;3.60;;;8.90;79.20;;;;;;5027840;28;20051;-68
2021/05/09 04:56:41;;;;;;;10.13;3.53;;;9.00;78.90;;;;;;5023398;28;20488;-68
2021/05/09 04:59:10;;;;;;;8.98;3.53;;;9.00;78.30;;;;;;5022428;28;20080;-69
2021/05/09 05:01:36;;;;;;;10.55;2.80;;;9.20;78.10;;;;;;5046800;28;20052;-69
2021/05/09 05:04:03;;;;;;;7.93;2.95;;;9.20;78.40;;;;;;5050493;28;20055;-69
2021/05/09 05:06:30;;;;;;;7.93;3.25;;;9.40;78.40;;;;;;5025540;28;20109;-69
2021/05/09 05:08:56;;;;;;;8.02;3.17;;;9.50;77.90;;;;;;5026042;28;20052;-69
2021/05/09 05:11:23;;;;;;;12.48;3.70;;;9.60;77.70;;;;;;5031851;28;20064;-69
2021/05/09 05:13:49;;;;;;;6.85;2.80;;;9.80;77.40;;;;;;5038488;28;20053;-69
2021/05/09 05:16:16;;;;;;;7.25;2.67;;;9.90;76.00;;;;;;5049408;28;20408;-69
2021/05/09 05:18:42;;;;;;;9.40;2.60;;;10.10;75.60;;;;;;5031978;28;20045;-69
2021/05/09 05:21:10;;;;;;;7.68;2.60;;;10.20;75.30;;;;;;5049275;28;20059;-69
2021/05/09 05:23:37;;;;;;;8.98;2.75;;;10.30;74.10;;;;;;5027556;28;20502;-69
2021/05/09 05:26:05;;;;;;;6.03;2.20;;;10.40;73.40;;;;;;5012053;28;20057;-69
2021/05/09 05:28:32;;;;;;;6.50;2.20;;;10.50;73.80;;;;;;5013777;28;20047;-69
2021/05/09 05:30:59;;;;;;;6.53;2.35;;;10.60;73.70;;;;;;5050087;28;20508;-69
2021/05/09 05:33:34;;;;;;;6.45;2.20;;;10.70;73.90;;;;;;5032931;28;20668;-69
2021/05/09 05:36:04;;;;;;;7.10;2.42;;;10.80;74.30;;;;;;5048810;28;20056;-69
2021/05/09 05:38:30;;;;;;;6.35;2.00;;;10.90;72.80;;;;;;5044305;28;20589;-68
2021/05/09 05:40:58;;;;;;;8.25;1.80;;;11.00;72.90;;;;;;5035509;28;20088;-69
2021/05/09 05:43:29;;;;;;;6.40;2.28;;;11.10;73.40;;;;;;5025927;28;20061;-69
2021/05/09 05:45:57;;;;;;;5.95;2.17;;;11.20;72.80;;;;;;5038377;28;20045;-69
2021/05/09 05:48:25;;;;;;;5.75;2.00;;;11.30;71.50;;;;;;5051277;28;20052;-69
2021/05/09 05:50:52;;;;;;;7.18;1.85;;;11.40;71.90;;;;;;5006009;28;20052;-69
2021/05/09 05:53:20;;;;;;;7.30;2.03;;;11.50;71.40;;;;;;5032631;28;20041;-69
2021/05/09 05:55:47;;;;;;;8.70;2.45;;;11.60;70.40;;;;;;5032361;28;20451;-69
2021/05/09 05:58:14;;;;;;;5.85;2.13;;;11.70;69.80;;;;;;5051489;28;20085;-69
2021/05/09 06:00:41;;;;;;;9.18;2.58;;;11.80;68.70;;;;;;5045154;28;20060;-69
2021/05/09 06:03:08;;;;;;;9.10;2.80;;;11.90;67.30;;;;;;5049441;28;20132;-69
2021/05/09 06:05:35;;;;;;;6.72;2.15;;;12.00;68.00;;;;;;5030660;28;20135;-69
2021/05/09 06:08:02;;;;;;;5.22;2.17;;;12.00;66.60;;;;;;5050522;28;20052;-69
2021/05/09 06:10:29;;;;;;;5.47;2.00;;;12.20;66.40;;;;;;5026692;28;20054;-69
2021/05/09 06:12:56;;;;;;;7.35;1.90;;;12.30;66.80;;;;;;5032418;28;20053;-69
2021/05/09 06:15:23;;;;;;;3.63;1.80;;;12.40;66.10;;;;;;5049489;28;20060;-68
2021/05/09 06:17:50;;;;;;;6.82;2.10;;;12.50;66.00;;;;;;5048602;28;20049;-69
2021/05/09 06:20:17;;;;;;;5.35;1.75;;;12.60;65.00;;;;;;5032207;28;20049;-69
2021/05/09 06:22:44;;;;;;;6.95;1.75;;;12.70;65.20;;;;;;5049727;28;20118;-69
2021/05/09 06:25:10;;;;;;;5.05;1.60;;;12.80;64.80;;;;;;5038946;28;20400;-69
2021/05/09 06:27:37;;;;;;;7.40;2.10;;;12.80;64.80;;;;;;5019203;28;20060;-69
2021/05/09 06:30:05;;;;;;;7.18;2.00;;;12.90;63.70;;;;;;5051115;28;20518;-69
2021/05/09 06:32:31;;;;;;;3.83;1.27;;;13.00;63.70;;;;;;5036486;28;20095;-68
2021/05/09 06:35:00;;;;;;;6.63;1.95;;;13.10;63.20;;;;;;5013879;28;20053;-69
2021/05/09 06:37:27;;;;;;;4.70;1.58;;;13.10;64.00;;;;;;5053084;28;20080;-69
2021/05/09 06:39:53;;;;;;;5.40;1.65;;;13.20;64.10;;;;;;5054393;28;20060;-69
2021/05/09 06:42:21;;;;;;;5.70;1.48;;;13.30;64.60;;;;;;5055488;28;20784;-69
2021/05/09 06:44:54;;;;;;;7.15;1.55;;;13.40;62.50;;;;;;5041087;28;20037;-69
2021/05/09 06:47:20;;;;;;;7.68;1.63;;;13.40;62.40;;;;;;5053438;28;20067;-69
2021/05/09 06:49:47;;;;;;;4.70;1.05;;;13.60;61.80;;;;;;5053005;28;20056;-69
2021/05/09 06:52:14;;;;;;;3.42;1.00;;;13.60;62.70;;;;;;5033542;28;20056;-68
2021/05/09 06:54:41;;;;;;;4.63;1.45;;;13.70;62.10;;;;;;5053233;28;20061;-68
2021/05/09 06:57:09;;;;;;;6.50;1.52;;;13.80;59.50;;;;;;5010911;28;20055;-69
2021/05/09 06:59:35;;;;;;;6.57;1.67;;;13.90;59.10;;;;;;5034776;28;20072;-69
2021/05/09 07:02:02;;;;;;;8.68;1.67;;;14.00;59.30;;;;;;5032749;28;20438;-68
2021/05/09 07:04:28;;;;;;;9.00;1.58;;;14.00;58.40;;;;;;5047675;28;20412;-69
2021/05/09 07:06:55;;;;;;;9.57;2.25;;;14.10;57.40;;;;;;5032887;28;20041;-69
2021/05/09 07:09:21;;;;;;;5.97;1.38;;;14.10;57.50;;;;;;5025709;28;20048;-69
2021/05/09 07:11:49;;;;;;;9.23;1.85;;;14.20;57.50;;;;;;5032404;28;20048;-67
2021/05/09 07:14:15;;;;;;;3.97;1.02;;;14.30;57.30;;;;;;5033499;28;20049;-67
2021/05/09 07:16:42;;;;;;;9.20;2.50;;;14.30;56.60;;;;;;5034680;28;20051;-67
2021/05/09 07:19:09;;;;;;;6.25;1.42;;;14.30;57.50;;;;;;5052432;28;20049;-67
2021/05/09 07:21:40;;;;;;;8.02;1.63;;;14.30;57.20;;;;;;5052382;28;20533;-67
2021/05/09 07:24:08;;;;;;;10.05;1.70;;;14.40;56.10;;;;;;5033188;28;20059;-67
2021/05/09 07:26:35;;;;;;;10.82;2.03;;;14.50;56.40;;;;;;5030894;28;20041;-67
2021/05/09 07:29:01;;;;;;;10.98;3.08;;;14.50;57.00;;;;;;5034765;28;20068;-67
2021/05/09 07:31:28;;;;;;;7.45;1.80;;;14.60;57.00;;;;;;5014610;28;20459;-67
2021/05/09 07:34:01;;;;;;;8.18;2.58;;;14.70;56.20;;;;;;5034726;28;20045;-67
2021/05/09 07:36:27;;;;;;;10.05;2.30;;;14.70;57.00;;;;;;5029935;28;20755;-67
2021/05/09 07:38:53;;;;;;;8.65;1.45;;;14.80;55.50;;;;;;5050768;28;20048;-67
2021/05/09 07:41:20;;;;;;;6.80;2.22;;;14.80;56.20;;;;;;5032997;28;20647;-67
2021/05/09 07:43:47;;;;;;;12.95;2.35;;;14.80;56.30;;;;;;5032334;28;20435;-67
2021/05/09 07:46:14;;;;;;;9.80;2.08;;;14.90;56.30;;;;;;5030465;28;20049;-67
2021/05/09 07:48:41;;;;;;;8.55;1.92;;;15.00;56.30;;;;;;5033911;28;20056;-67
2021/05/09 07:51:07;;;;;;;8.10;1.58;;;15.00;52.60;;;;;;5011850;28;20061;-68
2021/05/09 07:53:34;;;;;;;12.80;1.50;;;15.10;52.50;;;;;;5037860;28;20131;-68
2021/05/09 07:56:00;;;;;;;6.28;1.60;;;15.20;52.40;;;;;;5027659;28;20057;-68
2021/05/09 07:58:26;;;;;;;9.55;2.10;;;15.20;52.20;;;;;;5030378;28;20815;-68
2021/05/09 08:00:53;;;;;;;5.93;1.52;;;15.30;53.10;;;;;;5042153;28;20057;-68
2021/05/09 08:03:20;;;;;;;7.88;1.63;;;15.30;51.90;;;;;;5045338;28;20106;-68
2021/05/09 08:05:47;;;;;;;9.07;1.77;;;15.40;50.80;;;;;;5024352;28;20080;-71
2021/05/09 08:08:14;;;;;;;7.82;1.50;;;15.40;49.90;;;;;;5043898;28;20642;-71
2021/05/09 08:10:42;;;;;;;7.30;1.58;;;15.50;50.20;;;;;;5029858;28;20045;-71
2021/05/09 08:13:12;;;;;;;6.93;1.35;;;15.50;50.60;;;;;;5031001;28;20136;-71
2021/05/09 08:15:39;;;;;;;5.80;1.80;;;15.60;51.20;;;;;;5006570;28;20056;-71
2021/05/09 08:18:06;;;;;;;6.85;1.40;;;15.60;50.90;;;;;;5029853;28;20064;-70
2021/05/09 08:20:33;;;;;;;9.13;1.90;;;15.70;50.40;;;;;;5008543;28;20061;-70
2021/05/09 08:22:59;;;;;;;11.10;1.45;;;15.70;49.70;;;;;;5018085;28;20068;-71
2021/05/09 08:25:26;;;;;;;8.10;1.88;;;15.80;50.20;;;;;;5005338;28;20046;-67
2021/05/09 08:27:53;;;;;;;7.75;1.80;;;15.80;49.20;;;;;;5021246;28;20576;-67
2021/05/09 08:30:25;;;;;;;8.23;1.67;;;15.90;49.30;;;;;;5024025;28;20073;-67
2021/05/09 08:32:59;;;;;;;9.90;2.22;;;15.90;48.20;;;;;;5008210;28;20762;-66
2021/05/09 08:35:26;;;;;;;8.65;1.83;;;15.90;48.80;;;;;;5019764;28;20323;-66
2021/05/09 08:37:52;;;;;;;8.30;1.77;;;15.90;48.90;;;;;;5028614;28;20057;-66
2021/05/09 08:40:19;;;;;;;10.30;2.42;;;15.90;50.20;;;;;;5005572;28;20049;-69
2021/05/09 08:42:51;;;;;;;5.07;1.05;;;15.90;50.50;;;;;;5007136;28;20050;-67
2021/05/09 08:45:19;;;;;;;5.23;1.57;;;16.00;47.70;;;;;;5025502;28;20092;-67
2021/05/09 08:47:46;;;;;;;5.80;1.20;;;16.10;47.10;;;;;;5008018;28;20302;-67
2021/05/09 08:50:16;;;;;;;7.65;1.10;;;16.30;47.00;;;;;;5008920;28;20041;-67
2021/05/09 08:52:45;;;;;;;4.32;0.98;;;16.30;47.50;;;;;;5027062;28;20469;-68
2021/05/09 08:55:25;;;;;;;6.85;1.50;;;16.50;48.40;;;;;;5011232;28;20049;-67
2021/05/09 08:57:55;;;;;;;5.50;1.20;;;16.50;48.70;;;;;;5005874;28;20559;-68
2021/05/09 09:00:24;;;;;;;8.52;1.25;;;16.60;45.90;;;;;;5022431;28;20059;-68
2021/05/09 09:02:57;;;;;;;4.20;1.13;;;16.70;45.50;;;;;;5007675;28;20152;-69
2021/05/09 09:05:38;;;;;;;7.50;1.05;;;16.70;44.00;;;;;;4999103;28;20038;-68
2021/05/09 09:08:05;;;;;;;7.53;1.67;;;16.70;44.50;;;;;;5025306;28;20492;-67
2021/05/09 09:10:44;;;;;;;4.57;1.40;;;16.90;43.70;;;;;;5026360;28;20128;-67
2021/05/09 09:13:21;;;;;;;5.18;1.08;;;16.90;44.50;;;;;;5028689;28;20073;-67
2021/05/09 09:15:55;;;;;;;7.38;1.17;;;17.00;45.10;;;;;;5024083;28;20102;-70
2021/05/09 09:18:31;;;;;;;7.60;1.27;;;17.00;43.60;;;;;;5026074;28;20513;-70
2021/05/09 09:21:17;;;;;;;6.97;1.50;;;17.10;44.00;;;;;;5040652;28;20133;-71
2021/05/09 09:23:47;;;;;;;5.75;0.93;;;17.20;44.50;;;;;;5040387;28;20071;-72
2021/05/09 09:26:30;;;;;;;4.18;0.65;;;17.40;43.90;;;;;;5011863;28;20045;-71
2021/05/09 09:28:58;;;;;;;5.50;1.23;;;17.50;44.20;;;;;;5013740;28;20053;-71
2021/05/09 09:31:35;;;;;;;6.32;1.25;;;17.60;42.80;;;;;;5045018;28;20060;-71
2021/05/09 09:34:02;;;;;;;8.82;1.35;;;17.60;41.80;;;;;;5044258;28;20108;-71
2021/05/09 09:36:28;;;;;;;7.78;1.95;;;17.60;41.40;;;;;;5025720;28;20088;-67
2021/05/09 09:38:55;;;;;;;6.35;1.58;;;17.70;41.30;;;;;;5045068;28;20067;-67
2021/05/09 09:41:23;;;;;;;5.45;1.05;;;17.80;42.70;;;;;;5050890;28;20463;-67
2021/05/09 09:44:01;;;;;;;5.50;1.40;;;17.90;43.10;;;;;;5048939;28;20396;-67
2021/05/09 09:46:37;;;;;;;3.58;0.80;;;18.00;42.90;;;;;;5029022;28;20073;-68
2021/05/09 09:49:32;;;;;;;5.53;1.00;;;18.00;42.50;;;;;;5051943;28;20037;-67
2021/05/09 09:52:07;;;;;;;8.13;1.42;;;18.00;41.80;;;;;;5047768;28;20128;-67
2021/05/09 09:54:43;;;;;;;4.82;0.80;;;18.10;40.70;;;;;;5003199;28;20057;-67
2021/05/09 09:57:20;;;;;;;5.88;1.00;;;18.10;40.10;;;;;;5024606;28;20060;-67
2021/05/09 10:00:08;;;;;;;4.72;0.90;;;18.20;41.70;;;;;;5044668;28;20077;-67
2021/05/09 10:02:36;;;;;;;4.22;0.88;;;18.40;41.70;;;;;;5019572;28;20083;-67
2021/05/09 10:05:04;;;;;;;3.10;1.08;;;18.40;41.40;;;;;;5044348;28;20775;-67
2021/05/09 10:07:31;;;;;;;8.43;1.00;;;18.50;41.60;;;;;;5029837;28;20488;-67
2021/05/09 10:09:58;;;;;;;5.85;1.55;;;18.60;41.80;;;;;;5037442;28;20059;-67
2021/05/09 10:12:25;;;;;;;3.60;0.65;;;18.60;40.90;;;;;;5013890;28;20143;-67
2021/05/09 10:14:53;;;;;;;4.35;0.85;;;18.60;39.40;;;;;;5027452;28;20045;-67
2021/05/09 10:17:21;;;;;;;7.35;1.02;;;18.70;40.00;;;;;;5015098;28;22125;-68
2021/05/09 10:19:48;;;;;;;5.15;0.82;;;18.60;39.50;;;;;;5023277;28;20681;-67
2021/05/09 10:22:25;;;;;;;5.13;0.93;;;18.80;40.40;;;;;;5027427;28;20053;-67
2021/05/09 10:24:53;;;;;;;7.82;1.30;;;18.80;39.90;;;;;;4998051;28;20052;-63
2021/05/09 10:27:20;;;;;;;5.03;1.20;;;18.80;42.10;;;;;;5024295;28;20057;-68
2021/05/09 10:29:48;;;;;;;5.70;0.80;;;19.00;41.00;;;;;;5000965;28;20061;-69
2021/05/09 10:32:21;;;;;;;2.85;0.88;;;19.00;40.90;;;;;;5003199;28;20050;-68
2021/05/09 10:34:52;;;;;;;4.28;0.82;;;19.10;41.50;;;;;;4994971;28;20057;-68
2021/05/09 10:37:44;;;;;;;5.53;1.30;;;19.20;42.50;;;;;;5027131;28;20049;-68
2021/05/09 10:40:20;;;;;;;7.82;1.33;;;19.30;41.00;;;;;;5015317;28;20068;-68
2021/05/09 10:42:49;;;;;;;6.05;1.38;;;19.40;40.60;;;;;;5024300;28;20053;-67
2021/05/09 10:45:30;;;;;;;6.18;0.77;;;19.50;41.00;;;;;;5026575;28;20601;-68
2021/05/09 10:48:21;;;;;;;6.20;1.00;;;19.50;40.90;;;;;;5005333;28;20056;-68
2021/05/09 10:51:03;;;;;;;5.65;0.80;;;19.60;39.00;;;;;;5022352;28;20104;-68
2021/05/09 10:53:35;;;;;;;3.63;0.77;;;19.60;40.00;;;;;;4995766;28;20574;-68
2021/05/09 10:56:27;;;;;;;4.22;0.98;;;19.80;39.60;;;;;;5002570;28;20064;-68
2021/05/09 10:58:55;;;;;;;5.72;0.85;;;20.00;39.00;;;;;;5002063;28;20045;-68
2021/05/09 11:01:32;;;;;;;6.65;0.93;;;20.10;39.30;;;;;;4992610;28;20073;-68
2021/05/09 11:04:01;;;;;;;6.72;1.30;;;20.20;39.20;;;;;;4989747;28;20080;-68
2021/05/09 11:06:27;;;;;;;3.25;1.10;;;20.30;39.90;;;;;;5012078;28;20048;-68
2021/05/09 11:08:59;;;;;;;4.10;0.88;;;20.40;38.80;;;;;;5008474;28;20038;-69
2021/05/09 11:11:29;;;;;;;5.93;0.93;;;20.50;39.20;;;;;;5017024;28;20099;-69
2021/05/09 11:14:02;;;;;;;8.85;1.23;;;20.60;39.10;;;;;;5016892;28;20049;-69
2021/05/09 11:16:30;;;;;;;3.90;1.00;;;20.70;37.70;;;;;;5025196;28;20452;-68
2021/05/09 11:19:08;;;;;;;6.85;1.23;;;20.80;37.50;;;;;;5012865;28;20597;-68
2021/05/09 11:21:41;;;;;;;4.70;1.13;;;20.90;38.60;;;;;;5046091;28;20068;-69
2021/05/09 11:24:09;;;;;;;6.95;1.75;;;21.10;37.30;;;;;;5035727;28;20056;-69
2021/05/09 11:26:46;;;;;;;7.47;2.03;;;21.10;37.40;;;;;;5017510;28;20504;-69
2021/05/09 11:29:18;;;;;;;7.13;1.67;;;21.30;37.10;;;;;;5034530;28;20051;-69
2021/05/09 11:32:04;;;;;;;7.32;1.40;;;21.20;37.70;;;;;;5052898;28;20407;-69
2021/05/09 11:34:31;;;;;;;5.53;1.33;;;21.30;37.60;;;;;;5051505;28;20484;-69
2021/05/09 11:36:58;;;;;;;7.82;1.52;;;21.50;38.20;;;;;;5031093;28;20059;-68
2021/05/09 11:39:28;;;;;;;8.95;1.35;;;21.50;36.60;;;;;;5018359;28;20051;-68
2021/05/09 11:42:00;;;;;;;3.05;1.08;;;21.60;36.90;;;;;;5032746;28;20488;-68
2021/05/09 11:44:33;;;;;;;5.63;1.43;;;21.70;36.20;;;;;;5053757;28;20045;-69
2021/05/09 11:47:06;;;;;;;6.07;1.23;;;21.90;36.50;;;;;;5035192;28;20144;-69
2021/05/09 11:49:34;;;;;;;3.53;0.88;;;22.00;36.90;;;;;;5040481;28;20049;-68
2021/05/09 11:52:28;;;;;;;9.15;1.42;;;22.20;37.30;;;;;;5034224;28;20083;-68
2021/05/09 11:55:00;;;;;;;7.85;1.42;;;22.40;36.70;;;;;;5049897;28;20099;-68
2021/05/09 11:57:29;;;;;;;5.63;0.82;;;22.50;35.50;;;;;;5028954;28;20053;-70
2021/05/09 12:00:17;;;;;;;5.60;1.73;;;22.90;35.50;;;;;;5024728;28;20057;-69
2021/05/09 12:02:48;;;;;;;8.80;1.02;;;23.60;35.00;;;;;;5016760;28;20056;-69
2021/05/09 12:05:19;;;;;;;7.30;1.65;;;23.90;33.50;;;;;;5018740;28;20056;-69
2021/05/09 12:08:03;;;;;;;5.47;0.98;;;24.10;33.70;;;;;;5037585;28;20061;-69
2021/05/09 12:10:32;;;;;;;7.30;1.20;;;24.80;33.20;;;;;;5030263;28;20048;-69
2021/05/09 12:13:06;;;;;;;6.45;0.70;;;25.10;32.80;;;;;;5050499;28;20039;-69
2021/05/09 12:15:36;;;;;;;5.18;1.13;;;26.10;32.20;;;;;;5030360;28;20061;-69
2021/05/09 12:18:04;;;;;;;5.03;0.93;;;26.10;31.50;;;;;;5045294;28;20539;-69
2021/05/09 12:20:40;;;;;;;5.07;1.63;;;26.20;31.60;;;;;;5050653;28;20135;-69
2021/05/09 12:23:08;;;;;;;6.57;1.40;;;26.80;31.20;;;;;;5051737;28;20083;-69
2021/05/09 12:25:43;;;;;;;5.13;1.00;;;27.40;30.40;;;;;;5040096;28;20064;-69
2021/05/09 12:28:13;;;;;;;5.93;1.00;;;27.50;30.30;;;;;;5028351;28;20057;-69
2021/05/09 12:30:41;;;;;;;4.65;0.80;;;27.70;29.70;;;;;;5035797;28;20107;-69
2021/05/09 12:33:08;;;;;;;5.55;0.88;;;27.10;29.70;;;;;;5052439;28;20045;-69
2021/05/09 12:35:47;;;;;;;2.83;0.70;;;26.90;30.50;;;;;;5017005;28;20064;-69
2021/05/09 12:38:22;;;;;;;3.55;0.90;;;26.70;30.00;;;;;;5028313;28;20053;-69
2021/05/09 12:40:59;;;;;;;7.70;0.90;;;26.70;29.70;;;;;;5045417;28;20053;-69
2021/05/09 12:43:39;;;;;;;4.30;1.00;;;26.50;29.70;;;;;;5012439;28;20041;-69
2021/05/09 12:46:06;;;;;;;2.78;0.45;;;26.60;30.30;;;;;;5021702;28;20496;-69
2021/05/09 12:48:32;;;;;;;3.63;0.93;;;26.90;29.80;;;;;;5053550;28;20053;-69
2021/05/09 12:51:05;;;;;;;4.50;0.90;;;27.10;29.90;;;;;;5031738;28;20059;-69
2021/05/09 12:53:51;;;;;;;3.30;0.95;;;27.40;28.80;;;;;;5011428;28;20044;-69
2021/05/09 12:56:25;;;;;;;3.72;0.55;;;27.80;29.20;;;;;;5014561;28;20060;-69
2021/05/09 12:59:19;;;;;;;2.83;0.50;;;28.30;28.60;;;;;;5050645;28;20111;-69